Condiciones actuales en los principales Aeropuertos de España-Datos Metar

 

LEAL - Alicante
Actualización: 22/05/2019 12:30
Despejado
Despejado
 Viento del E
Viento: E 13 km/h
Temperatura: 24°C
Rocío: 11°C
Humedad: 44%
Barómetro: 1018 hPa
Resumen: Despejado
Visibilidad: greater than 10 km
2019/05/22 10:30 LEAL 221030Z 09007KT 050V130 CAVOK 24/11 Q1018 NOSIG
LEAB - Albacete
Actualización: 22/05/2019 12:00
Despejado
Despejado
 Viento del OSO
Viento: OSO 9 km/h
Temperatura: 21°C
Rocío: 9°C
Humedad: 46%
Barómetro: 1019 hPa
Resumen: Despejado
Visibilidad: greater than 10 km
2019/05/22 10:00 LEAB 221000Z 24005KT 200V300 CAVOK 21/09 Q1019 NOSIG
LEAM - Almería
Actualización: 22/05/2019 12:30
Despejado
Despejado
 Viento del S
Viento: S 11 km/h
Temperatura: 22°C
Rocío: 17°C
Humedad: 73%
Barómetro: 1017 hPa
Resumen: Despejado
Visibilidad: greater than 10 km
2019/05/22 10:30 LEAM 221030Z 19006KT 150V240 CAVOK 22/17 Q1017
 
LEAS - Asturias/Aviles
Actualización: 22/05/2019 12:30
Few Clouds
Few Clouds
 Viento del ENE
Viento: ENE 6 km/h
Temperatura: 18°C
Rocío: 13°C
Humedad: 73%
Barómetro: 1018 hPa
Nubosidad: Few Clouds
Visibilidad: 9 km
Cloud details: Few Clouds 305 m
2019/05/22 10:30 LEAS 221030Z 06003KT 010V110 9000 FEW010 18/13 Q1018 NOSIG
LEBZ - Badajoz/Talavera la Real
Actualización: 22/05/2019 12:00
Despejado
Despejado
 Viento del SO
Viento: SO 4 km/h
Temperatura: 24°C
Rocío: 12°C
Humedad: 47%
Barómetro: 1017 hPa
Resumen: Despejado
Visibilidad: greater than 10 km
2019/05/22 10:00 LEBZ 221000Z 23002KT CAVOK 24/12 Q1017
LEBL - Barcelona
Actualización: 22/05/2019 12:30
Few Clouds
Few Clouds
 Viento del SSO
Viento: SSO 19 km/h
Temperatura: 19°C
Rocío: 15°C
Humedad: 78%
Barómetro: 1018 hPa
Nubosidad: Few Clouds
Visibilidad: 10 km
Cloud details: Few Clouds 457 m
2019/05/22 10:30 LEBL 221030Z 21010KT 9999 FEW015 19/15 Q1018 NOSIG
 
LEBB - Bilbao
Actualización: 22/05/2019 12:30
Despejado
Despejado
 Viento del varies
Viento: varies 7 km/h
Temperatura: 21°C
Rocío: 12°C
Humedad: 57%
Barómetro: 1019 hPa
Resumen: Despejado
Visibilidad: greater than 10 km
2019/05/22 10:30 LEBB 221030Z VRB04KT CAVOK 21/12 Q1019 NOSIG
LEBG - Burgos/Villafría
Actualización: 22/05/2019 12:30
Despejado
Despejado
 Viento del ENE
Viento: ENE 2 km/h
Temperatura: 19°C
Rocío: 3°C
Humedad: 35%
Barómetro: 1020 hPa
Resumen: Despejado
Visibilidad: greater than 10 km
2019/05/22 10:30 LEBG 221030Z 07001KT CAVOK 19/03 Q1020
LEBA - Córdoba
Actualización: 22/05/2019 12:30
Few Clouds
Few Clouds
 Viento del SO
Viento: SO 4 km/h
Temperatura: 26°C
Rocío: 11°C
Humedad: 39%
Barómetro: 1017 hPa
Nubosidad: Few Clouds
Visibilidad: 10 km
Cloud details: Few Clouds 914 m
2019/05/22 10:30 LEBA 221030Z 22002KT 9999 FEW030 26/11 Q1017
 
LEGE - Gerona
Actualización: 22/05/2019 12:30
Few Clouds
Few Clouds
 Viento del SSO
Viento: SSO 9 km/h
Temperatura: 23°C
Rocío: 10°C
Humedad: 44%
Barómetro: 1018 hPa
Nubosidad: Few Clouds
Visibilidad: 10 km
Cloud details: Few Clouds 1524 m
2019/05/22 10:30 LEGE 221030Z 21005KT 160V300 9999 FEW050 23/10 Q1018
LEGR - Granada
Actualización: 22/05/2019 12:30
Few Clouds
Few Clouds
 Viento del varies
Viento: varies 4 km/h
Temperatura: 25°C
Rocío: 8°C
Humedad: 34%
Barómetro: 1018 hPa
Nubosidad: Few Clouds
Visibilidad: 10 km
Cloud details: Few Clouds 1829 m
2019/05/22 10:30 LEGR 221030Z VRB02KT 9999 FEW060 25/08 Q1018
GCHI - Hierro
Actualización: 22/05/2019 12:30
Few Clouds
Few Clouds
 Viento del N
Viento: N 22 km/h
Temperatura: 22°C
Rocío: 18°C
Humedad: 78%
Barómetro: 1019 hPa
Nubosidad: Few Clouds
Visibilidad: 10 km
Cloud details: Few Clouds 914 m
2019/05/22 10:30 GCHI 221030Z 36012KT 9999 FEW030 22/18 Q1019
 
LEIB - Ibiza
Actualización: 22/05/2019 12:30
Despejado
Despejado
 Viento del E
Viento: E 13 km/h
Temperatura: 22°C
Rocío: 15°C
Humedad: 65%
Barómetro: 1019 hPa
Resumen: Despejado
Visibilidad: greater than 10 km
2019/05/22 10:30 LEIB 221030Z 09007KT 040V140 CAVOK 22/15 Q1019 NOSIG
LEJR - Jerez de la Frontera
Actualización: 22/05/2019 13:00
Despejado
Despejado
 Viento del varies
Viento: varies 4 km/h
Temperatura: 27°C
Rocío: 10°C
Humedad: 34%
Barómetro: 1017 hPa
Resumen: Despejado
Visibilidad: greater than 10 km
2019/05/22 11:00 LEJR 221100Z VRB02KT CAVOK 27/10 Q1017
LECO - A Coruña
Actualización: 22/05/2019 12:30
Despejado
Despejado
 Viento del NNE
Viento: NNE 7 km/h
Temperatura: 21°C
Rocío: 11°C
Humedad: 53%
Barómetro: 1017 hPa
Resumen: Despejado
Visibilidad: greater than 10 km
2019/05/22 10:30 LECO 221030Z 03004KT 340V090 CAVOK 21/11 Q1017 NOSIG
 
GCLA - La Palma
Actualización: 22/05/2019 12:30
Partly Cloudy
Partly Cloudy
 Viento del NNE
Viento: NNE 24 km/h
Temperatura: 22°C
Rocío: 16°C
Humedad: 69%
Barómetro: 1020 hPa
Nubosidad: Partly Cloudy
Visibilidad: 10 km
Cloud details: Partly Cloudy 1219 m
2019/05/22 10:30 GCLA 221030Z 03013KT 350V070 9999 SCT040 22/16 Q1020
GCRR - Lanzarote
Actualización: 22/05/2019 12:30
Mostly Cloudy
Mostly Cloudy
 Viento del N
Viento: N 41 km/h
Temperatura: 22°C
Rocío: 14°C
Humedad: 61%
Barómetro: 1017 hPa
Nubosidad: Mostly Cloudy
Visibilidad: 10 km
Cloud details: Mostly Cloudy 914 m
2019/05/22 10:30 GCRR 221030Z 01022KT 9999 BKN030 22/14 Q1017
GCLP - Las Palmas
Actualización: 22/05/2019 12:30
Mostly Cloudy
Mostly Cloudy
 Viento del N
Viento: N 41 km/h
Temperatura: 22°C
Rocío: 15°C
Humedad: 65%
Barómetro: 1018 hPa
Nubosidad: Mostly Cloudy
Visibilidad: 10 km
Cloud details: Few Clouds 610 m
Partly Cloudy 762 m
Mostly Cloudy 914 m
2019/05/22 10:30 GCLP 221030Z 01022KT 9999 FEW020 SCT025 BKN030 22/15 Q1018 NOSIG
 
LELN - León
Actualización: 22/05/2019 12:30
Few Clouds
Few Clouds
 Viento del SSO
Viento: SSO 9 km/h
Temperatura: 18°C
Rocío: 4°C
Humedad: 40%
Barómetro: 1019 hPa
Nubosidad: Few Clouds
Visibilidad: 10 km
Cloud details: Few Clouds 1219 m
2019/05/22 10:30 LELN 221030Z 20005KT 100V260 9999 FEW040 18/04 Q1019
LELO - Logroño
Actualización: 22/05/2019 12:30
Few Clouds
Few Clouds
 Viento del varies
Viento: varies 6 km/h
Temperatura: 20°C
Rocío: 9°C
Humedad: 49%
Barómetro: 1019 hPa
Nubosidad: Few Clouds
Visibilidad: 10 km
Cloud details: Few Clouds 914 m
2019/05/22 10:30 LELO 221030Z VRB03KT 9999 FEW030 20/09 Q1019
LECV - Madrid/Colmenar
Actualización: 22/05/2019 12:00
Few Clouds
Few Clouds
 Viento del SSE
Viento: SSE 9 km/h
Temperatura: 20°C
Rocío: 5°C
Humedad: 38%
Barómetro: 1020 hPa
Nubosidad: Few Clouds
Visibilidad: 10 km
Cloud details: Few Clouds 1829 m
2019/05/22 10:00 LECV 221000Z 15005KT 9999 FEW060 20/05 Q1020
 
LEMD - Madrid/Barajas
Actualización: 22/05/2019 12:30
Despejado
Despejado
 Viento del S
Viento: S 6 km/h
Temperatura: 23°C
Rocío: 7°C
Humedad: 36%
Barómetro: 1018 hPa
Resumen: Despejado
Visibilidad: greater than 10 km
2019/05/22 10:30 LEMD 221030Z 19003KT 100V250 CAVOK 23/07 Q1018 NOSIG
LEVS - Madrid/Cuatro Vientos
Actualización: 22/05/2019 12:30
Despejado
Despejado
 Viento del ESE
Viento: ESE 4 km/h
Temperatura: 24°C
Rocío: 6°C
Humedad: 31%
Barómetro: 1019 hPa
Resumen: Despejado
Visibilidad: greater than 10 km
2019/05/22 10:30 LEVS 221030Z 12002KT CAVOK 24/06 Q1019
LEGT - Madrid/Getafe
Actualización: 22/05/2019 12:00
Few Clouds
Few Clouds
 Viento del varies
Viento: varies 6 km/h
Temperatura: 22°C
Rocío: 8°C
Humedad: 41%
Barómetro: 1019 hPa
Nubosidad: Few Clouds
Visibilidad: 10 km
Cloud details: Few Clouds 1219 m
2019/05/22 10:00 LEGT 221000Z VRB03KT 9999 FEW040 22/08 Q1019
 
LETO - Madrid/Torrejón
Actualización: 22/05/2019 12:00
Despejado
Despejado
 Viento del varies
Viento: varies 2 km/h
Temperatura: 23°C
Rocío: 8°C
Humedad: 38%
Barómetro: 1019 hPa
Resumen: Despejado
Visibilidad: greater than 10 km
2019/05/22 10:00 LETO 221000Z VRB01KT CAVOK 23/08 Q1019 NOSIG
LEMG - Málaga
Actualización: 22/05/2019 12:30
Few Clouds
Few Clouds
 Viento del ESE
Viento: ESE 15 km/h
Temperatura: 22°C
Rocío: 14°C
Humedad: 61%
Barómetro: 1018 hPa
Nubosidad: Few Clouds
Visibilidad: 10 km
Cloud details: Few Clouds 1219 m
2019/05/22 10:30 LEMG 221030Z 12008KT 080V170 9999 FEW040 22/14 Q1018 NOSIG
GEML - Melilla
Actualización: 22/05/2019 12:30
Partly Cloudy
Partly Cloudy
 Viento del E
Viento: E 13 km/h
Temperatura: 21°C
Rocío: 16°C
Humedad: 73%
Barómetro: 1018 hPa
Nubosidad: Partly Cloudy
Visibilidad: 10 km
Cloud details: Few Clouds 244 m
Partly Cloudy 366 m
2019/05/22 10:30 GEML 221030Z 08007KT 020V120 9999 FEW008 SCT012 21/16 Q1018
 
LEMH - Mahón
Actualización: 22/05/2019 12:30
Few Clouds
Few Clouds
 Viento del E
Viento: E 11 km/h
Temperatura: 22°C
Rocío: 11°C
Humedad: 50%
Barómetro: 1019 hPa
Nubosidad: Few Clouds
Visibilidad: 10 km
Cloud details: Few Clouds 549 m
2019/05/22 10:30 LEMH 221030Z 09006KT 030V140 9999 FEW018 22/11 Q1019
LEMO - Morón de La Frontera
Actualización: 22/05/2019 13:00
Despejado
Despejado
 Viento del varies
Viento: varies 7 km/h
Temperatura: 26°C
Rocío: 10°C
Humedad: 37%
Barómetro: 1017 hPa
Resumen: Despejado
Visibilidad: greater than 10 km
2019/05/22 11:00 LEMO 221100Z VRB04KT CAVOK 26/10 Q1017 NOSIG
LEMI - Murcia/Corvera
Actualización: 22/05/2019 12:30
Despejado
Despejado
 Viento del ESE
Viento: ESE 6 km/h
Temperatura: 23°C
Rocío: 5°C
Humedad: 31%
Barómetro: 1019 hPa
Resumen: Despejado
Visibilidad: greater than 10 km
2019/05/22 10:30 LEMI 221030Z 11003KT 030V200 CAVOK 23/05 Q1019
 
LERI - Murcia/Alcantarilla
Actualización: 22/05/2019 12:00
Few Clouds
Few Clouds
 Viento del NE
Viento: NE 7 km/h
Temperatura: 23°C
Rocío: 10°C
Humedad: 44%
Barómetro: 1018 hPa
Nubosidad: Few Clouds
Visibilidad: 10 km
Cloud details: Few Clouds 1219 m
2019/05/22 10:00 LERI 221000Z 05004KT 330V110 9999 FEW040 23/10 Q1018 NOSIG
LELC - Murcia/San Javier
Actualización: 22/05/2019 12:30
Despejado
Despejado
 Viento del E
Viento: E 9 km/h
Temperatura: 22°C
Rocío: 15°C
Humedad: 65%
Barómetro: 1019 hPa
Resumen: Despejado
Visibilidad: greater than 10 km
2019/05/22 10:30 LELC 221030Z 10005KT 060V140 CAVOK 22/15 Q1019 NOSIG
LEPA - Palma de Mallorca
Actualización: 22/05/2019 12:30
Few Clouds
Few Clouds
 Viento del OSO
Viento: OSO 11 km/h
Temperatura: 24°C
Rocío: 5°C
Humedad: 29%
Barómetro: 1018 hPa
Nubosidad: Few Clouds
Visibilidad: 10 km
Cloud details: Few Clouds 1219 m
2019/05/22 10:30 LEPA 221030Z 25006KT 190V290 9999 FEW040 24/05 Q1018 NOSIG
 
LEPP - Pamplona
Actualización: 22/05/2019 12:30
Few Clouds
Few Clouds
 Viento del SSO
Viento: SSO 6 km/h
Temperatura: 19°C
Rocío: 11°C
Humedad: 60%
Barómetro: 1019 hPa
Nubosidad: Few Clouds
Visibilidad: 10 km
Cloud details: Few Clouds 762 m
2019/05/22 10:30 LEPP 221030Z 21003KT 150V270 9999 FEW025 19/11 Q1019
LERS - Reus
Actualización: 22/05/2019 12:30
Few Clouds
Few Clouds
 Viento del SSE
Viento: SSE 13 km/h
Temperatura: 22°C
Rocío: 12°C
Humedad: 53%
Barómetro: 1018 hPa
Nubosidad: Few Clouds
Visibilidad: 10 km
Cloud details: Few Clouds 610 m
2019/05/22 10:30 LERS 221030Z 15007KT 080V210 9999 FEW020 22/12 Q1018
LERT - Rota
Actualización: 22/05/2019 12:00
Despejado
Despejado
 Viento del SSO
Viento: SSO 9 km/h
Temperatura: 23°C
Rocío: 14°C
Humedad: 57%
Barómetro: 1017 hPa
Resumen: Despejado
Visibilidad: greater than 10 km
2019/05/22 10:00 LERT 221000Z 20005KT 150V260 CAVOK 23/14 Q1017 NOSIG
 
LELL - Sabadell
Actualización: 22/05/2019 12:30
Despejado
Despejado
 Viento del SSO
Viento: SSO 6 km/h
Temperatura: 24°C
Rocío: 10°C
Humedad: 41%
Barómetro: 1018 hPa
Resumen: Despejado
Visibilidad: greater than 10 km
2019/05/22 10:30 LELL 221030Z 21003KT 140V290 CAVOK 24/10 Q1018
LESA - Salamanca
Actualización: 22/05/2019 12:30
Few Clouds
Few Clouds
 Viento del varies
Viento: varies 6 km/h
Temperatura: 21°C
Rocío: 5°C
Humedad: 35%
Barómetro: 1019 hPa
Nubosidad: Few Clouds
Visibilidad: 10 km
Cloud details: Few Clouds 1372 m
2019/05/22 10:30 LESA 221030Z VRB03KT 9999 FEW045 21/05 Q1019
LESO - San Sebastián
Actualización: 22/05/2019 12:30
Few Clouds
Few Clouds
 Viento del N
Viento: N 11 km/h
Temperatura: 17°C
Rocío: 13°C
Humedad: 77%
Barómetro: 1020 hPa
Nubosidad: Few Clouds
Visibilidad: 10 km
Cloud details: Few Clouds 975 m
2019/05/22 10:30 LESO 221030Z 36006KT 320V060 9999 FEW032 17/13 Q1020
 
LEXJ - Santander
Actualización: 22/05/2019 12:30
Despejado
Despejado
 Viento del NE
Viento: NE 9 km/h
Temperatura: 20°C
Rocío: 14°C
Humedad: 69%
Barómetro: 1018 hPa
Resumen: Despejado
Visibilidad: greater than 10 km
2019/05/22 10:30 LEXJ 221030Z 05005KT 330V110 CAVOK 20/14 Q1018
LEPA - Palma de Mallorca
Actualización: 22/05/2019 12:30
Few Clouds
Few Clouds
 Viento del OSO
Viento: OSO 11 km/h
Temperatura: 24°C
Rocío: 5°C
Humedad: 29%
Barómetro: 1018 hPa
Nubosidad: Few Clouds
Visibilidad: 10 km
Cloud details: Few Clouds 1219 m
2019/05/22 10:30 LEPA 221030Z 25006KT 190V290 9999 FEW040 24/05 Q1018 NOSIG
LEPP - Pamplona
Actualización: 22/05/2019 12:30
Few Clouds
Few Clouds
 Viento del SSO
Viento: SSO 6 km/h
Temperatura: 19°C
Rocío: 11°C
Humedad: 60%
Barómetro: 1019 hPa
Nubosidad: Few Clouds
Visibilidad: 10 km
Cloud details: Few Clouds 762 m
2019/05/22 10:30 LEPP 221030Z 21003KT 150V270 9999 FEW025 19/11 Q1019
 
LEST - Santiago de Compostela
Actualización: 22/05/2019 12:30
Despejado
Despejado
 Viento del ONO
Viento: ONO 9 km/h
Temperatura: 22°C
Rocío: 10°C
Humedad: 47%
Barómetro: 1018 hPa
Resumen: Despejado
Visibilidad: greater than 10 km
2019/05/22 10:30 LEST 221030Z 30005KT 260V330 CAVOK 22/10 Q1018 NOSIG
LEZL - Sevilla
Actualización: 22/05/2019 12:30
Despejado
Despejado
 Viento del varies
Viento: varies 4 km/h
Temperatura: 27°C
Heat Index: 27°C
Rocío: 13°C
Humedad: 42%
Barómetro: 1017 hPa
Resumen: Despejado
Visibilidad: greater than 10 km
2019/05/22 10:30 LEZL 221030Z VRB02KT CAVOK 27/13 Q1017 NOSIG
GCXO - Tenerife
Actualización: 22/05/2019 12:30
Patches of fog, Muy nuboso
Patches of fog, Muy nuboso
 Viento del NO
Viento: NO 31 km/h
Temperatura: 16°C
Rocío: 14°C
Humedad: 88%
Barómetro: 1020 hPa
Resumen: Patches of Fog
Nubosidad: Mostly Cloudy
Visibilidad: 10 km
Cloud details: Few Clouds 30 m
Mostly Cloudy 213 m
2019/05/22 10:30 GCXO 221030Z 31017KT 9999 2000NW BCFG FEW001 BKN007 16/14 Q1020 TEMPO 4000
 
GCTS - Tenerife-Sur
Actualización: 22/05/2019 12:30
Partly Cloudy
Partly Cloudy
 Viento del E
Viento: E 30 km/h
Temperatura: 24°C
Rocío: 15°C
Humedad: 57%
Barómetro: 1018 hPa
Nubosidad: Partly Cloudy
Visibilidad: 10 km
Cloud details: Partly Cloudy 1036 m
2019/05/22 10:30 GCTS 221030Z 09016KT 060V120 9999 SCT034 24/15 Q1018 WS R07 NOSIG
LEVC - Valencia
Actualización: 22/05/2019 12:30
Few Clouds
Few Clouds
 Viento del E
Viento: E 9 km/h
Temperatura: 22°C
Rocío: 13°C
Humedad: 57%
Barómetro: 1018 hPa
Nubosidad: Few Clouds
Visibilidad: 10 km
Cloud details: Few Clouds 762 m
2019/05/22 10:30 LEVC 221030Z 08005KT 020V140 9999 FEW025 22/13 Q1018 NOSIG
LEVD - Valladolid
Actualización: 22/05/2019 12:30
Despejado
Despejado
 Viento del SSE
Viento: SSE 6 km/h
Temperatura: 21°C
Rocío: 4°C
Humedad: 33%
Barómetro: 1019 hPa
Resumen: Despejado
Visibilidad: greater than 10 km
2019/05/22 10:30 LEVD 221030Z 15003KT 080V230 CAVOK 21/04 Q1019
 
LEVX - Vigo
Actualización: 22/05/2019 12:30
Few Clouds
Few Clouds
 Viento del OSO
Viento: OSO 7 km/h, Racha: 28 km/h
Temperatura: 20°C
Rocío: 12°C
Humedad: 60%
Barómetro: 1018 hPa
Nubosidad: Few Clouds
Visibilidad: 10 km
Cloud details: Few Clouds 914 m
2019/05/22 10:30 LEVX 221030Z 24004G15KT 200V280 9999 FEW030 20/12 Q1018 NOSIG
LEVT - Vitoria
Actualización: 22/05/2019 12:30
Few Clouds
Few Clouds
 Viento del ESE
Viento: ESE 2 km/h
Temperatura: 17°C
Rocío: 9°C
Humedad: 59%
Barómetro: 1020 hPa
Nubosidad: Few Clouds
Visibilidad: 10 km
Cloud details: Few Clouds 1372 m
2019/05/22 10:30 LEVT 221030Z 11001KT 9999 FEW045 17/09 Q1020
LEZG - Zaragoza
Actualización: 22/05/2019 12:30
Few Clouds
Few Clouds
 Viento del NO
Viento: NO 15 km/h
Temperatura: 20°C
Rocío: 8°C
Humedad: 46%
Barómetro: 1019 hPa
Nubosidad: Few Clouds
Visibilidad: 10 km
Cloud details: Few Clouds 1524 m
2019/05/22 10:30 LEZG 221030Z 31008KT 240V350 9999 FEW050 20/08 Q1019

La estación de MeteoMurcia.com, publica sus datos en los siguientes proyectos:

Weather Underground PWS IMURCIAP2 Meteoclimatic www.awekas.at

W3Counter
Web Analytics